Logo AVAMET
Benvolgut visitant, si us plau, ingressa Recuperar contrasenya
AVAMET paisatges

Bunyol Camp de Futbol

Dades diàries. Acumulats / Últims 30 dies disponibles

Data Temperatura (°C) Humitat rel. (%) Pressió rel. (hPa) Vent (km/h) Precipitació
Mínima Mitjana Màxima Amplitud
tèrmica
Mínima Mitjana Màxima Mínima Mitjana Màxima Predom. Mitjana Ràfega
màxima
Total
(mm)
Índex-n
Mínima Mitjana Màxima Mínima Mitjana Màxima n
0 a 1
P0 max
mm 5'
Dades mensuals acumulades fins l'últim dia disponible
02/2020 4,1 9,2 13,7 13,5 8,3 20,3 27,2 23,1 26 79 100 979 1.026 1.031   8,6 50,3 0,0
Dades anuals acumulades fins l'últim dia disponible
2020 2,3 7,1 13,7 10,9 6,7 16,6 27,2 24,9 11 79 100 972 1.025 1.034   7,6 60,3 31,9
Últims 30 dies disponibles
17-02-2020 10,5     15,5     23,5 13,0 40 71 96 1.024 1.026 1.029 SO 7,7 47,7 0,0
16-02-2020 9,3     15,4     24,3 15,0 37 71 97 1.025 1.027 1.028 SO 3,6 31,3 0,0
15-02-2020 8,0     13,1     23,4 15,4 37 83 100 1.025 1.026 1.028 SSO 2,0 28,7 0,0
14-02-2020 9,1     13,5     20,9 11,8 46 72 91 1.024 1.025 1.027 SO 6,5 32,4 0,0
13-02-2020 10,2     14,5     20,5 10,3 48 77 100 1.021 1.023 1.025 OSO 8,7 42,0 0,0
12-02-2020 9,5     12,6     17,6 8,1 69 88 100 1.024 1.025 1.026 S 2,2 21,3 0,0
11-02-2020 10,6     15,5     25,5 14,9 44 74 93 1.023 1.025 1.027 OSO 13,1 48,8 0,0
09-02-2020 5,6     8,3     8,3 2,7 91 91 91 1.025 1.025 1.025 O 21,1 35,2 0,0
07-02-2020 5,9     9,1     14,1 8,2 77 93 100 1.023 1.025 1.026 SSO 0,6 19,4 0,0
06-02-2020 4,1     9,1     15,8 11,7 58 89 100 1.025 1.027 1.029 SSE 2,1 24,4 0,0
05-02-2020 7,0     11,1     16,4 9,4 57 79 100 1.027 1.029 1.031 SSE 1,6 33,9 0,0
04-02-2020 11,6     16,8     25,6 14,0 37 56 82 1.024 1.026 1.029 O 15,5 47,4 0,0
03-02-2020 11,4     16,9     27,2 15,8 26 69 96 1.028 1.029 1.031 OSO 13,7 41,1 0,0
02-02-2020 11,4     15,3     20,9 9,5 61 85 100 1.027 1.028 1.030 O 17,0 48,1 0,0
01-02-2020 13,7     16,3     21,2 7,5 60 81 94 979 1.023 1.028 SO 13,5 50,3 0,0
31-01-2020 11,3     13,9     19,1 7,8 64 82 94 1.022 1.023 1.025 OSO 15,5 43,8 0,0
30-01-2020 10,9     13,6     16,4 5,5 60 77 97 1.021 1.023 1.025 OSO 18,3 52,9 0,0
29-01-2020 13,1     14,3     16,7 3,6 70 82 91 1.022 1.023 1.025 OSO 8,5 47,7 0,0
28-01-2020 10,8     12,6     14,4 3,6 78 86 94 1.021 1.022 1.023 OSO 20,1 60,3 0,0
27-01-2020 6,0     9,6     14,0 8,0 59 77 91 979 1.023 1.025 SO 12,9 57,2 0,0
26-01-2020 7,7     10,7     15,8 8,1 51 82 100 1.019 1.021 1.025 O 8,1 31,6 0,0
25-01-2020 8,9     9,9     11,9 3,0 100 100 100 1.018 1.020 1.021 SE 0,6 23,3 0,0
24-01-2020 8,0     9,5     12,3 4,3 97 100 100 1.021 1.022 1.024 ESE 0,2 15,7 0,0
23-01-2020 4,0     7,9     12,7 8,7 81 97 100 1.019 1.021 1.023 SSE 1,0 19,1 0,0
22-01-2020 6,4     8,1     9,4 3,0 95 100 100 1.018 1.019 1.021 SE 3,7 23,3
21-01-2020 4,9     7,4     9,3 4,4 100 100 100 1.014 1.017 1.022 ESE 3,9 41,6
20-01-2020 3,2     5,3     6,7 3,5 58 93 100 975 1.019 1.022 NE 14,5 48,1 1,2
19-01-2020 3,8     8,0     11,7 7,9 73 98 100 972 1.018 1.021 S 5,2 31,6 30,7 0,19 1,60
18-01-2020 8,0     11,2     15,5 7,5 58 78 97 1.020 1.027 1.032 SO 7,8 47,2 0,0
17-01-2020 8,5     11,2     16,5 8,0 50 60 73 1.026 1.029 1.031 OSO 8,8 46,4 0,0
Últims 13 mesos disponibles
12/2019 3,3 8,6 15,1 11,7 10,4 16,2 23,3 20,0 59 81 100 1.004 1.019 1.032 SO 11,4 89,9 76,2
11/2019 3,7 9,6 18,2 12,8 13,4 17,4 26,1 22,4 46 70 99 1.001 1.012 1.019 OSO 15,2 81,2 7,2
10/2019 9,6 14,3 18,2 18,5 14,9 24,8 32,1 22,5 43 74 97 1.009 1.018 1.023 OSO 8,5 56,8 19,6
09/2019 13,3 17,9 20,4 21,9 18,4 27,3 34,2 20,9 27 78 98 1.013 1.020 1.026 SSE 6,9 45,7 143,4
08/2019 16,2 20,0 25,0 24,9 23,3 31,4 38,4 22,2 26 73 95 1.014 1.019 1.023 SE 7,0 45,0 16,7
07/2019 18,5 20,3 23,1 25,6 24,9 31,5 36,9 18,4 37 65 92 1.010 1.017 1.024 SSE 8,4 52,9 3,0
06/2019 9,7 16,0 20,8 21,6 20,6 27,7 37,2 27,5 25 61 92 1.011 1.018 1.023 SSE 7,9 69,4 1,0
05/2019 6,3 11,9 15,1 16,8 17,9 22,8 27,7 21,4 46 69 96 1.009 1.017 1.025 S 7,0 60,3 9,0
04/2019 6,4 9,4 11,7 13,3 12,2 18,6 27,7 21,3 33 72 100 1.002 1.014 1.026 SO 9,5 64,4 117,0
03/2019 4,3 8,0 12,8 13,2 10,5 19,6 26,0 21,7 27 55 99 1.012 1.023 1.030 S 8,1 67,9
02/2019 2,5 6,0 10,7 11,1 10,8 17,6 26,1 23,6 25 62 92 997 1.025 1.033 SSO 9,1 87,0
01/2019 1,1 5,2 10,0 9,5 10,8 15,9 21,9 20,8 35 58 81 1.004 1.019 1.030 OSO 12,4 85,8
12/2018 4,0 7,3 11,5 11,6 12,5 17,8 25,1 21,1 36 72 95 1.009 1.025 1.030 OSO 11,8 70,5 3,0
Tots els anys disponibles
2019 1,1 12,3 25,0 16,8 10,4 22,6 38,4 37,3 25 68 100 997 1.018 1.033 OSO 9,3 89,9
2018 0,1 13,3 23,6 17,5 8,3 23,0 37,4 37,3 24 72 100 997 1.017 1.030 OSO 8,7 78,1
2017 -1,4 9,5 24,4 12,3 0,6 15,6 29,4 30,8 19 60 97 501 958 1.015 50,0
2016 0,9 8,6 27,3 13,1 7,7 17,5 38,1 37,2 20 58 93 981 1.009 1.027 99,0
2015 5,7 15,4 26,9 20,4 7,1 25,4 41,2 35,5 2 63 98 -49 957 1.066 71,0
2014 3,2 13,6 25,4 18,6 8,3 23,6 38,7 35,5 19 58 94 976 1.007 1.019 105,0
Temperatura (°C)
Humitat relativa (%)
Velocitat del vent i ràfega màxima (km/h)
Direcció del vent (°)
Pressió (hPa)
Precipitació (mm)
Nota sobre les dades: s'avisa a l'usuari de la provisionalitat i no oficialitat d'aquestes dades
Logo AVAMET blanc
Web allotjada a Sollutia
Llicència de Creative CommonsLa web d'AVAMET i els seus continguts estan subjectes a una llicència de
Reconeixement - No Comercial - Compartir igual
Últimes estacions:  Sorita (AVAMET), Gorga (Soci), Massalavés - Ajuntament (Soci/Inforatge), Albuixech - Polígon (Inforatge), La Torre d'en Besora (Ajuntament soci), Xixona - Sogorb Barranc Blanc (Soci), Pedreguer - Patronat (Soci) - - -